createdAt,value
2023-02-09T00:00:23.267Z,15.50
2023-02-09T00:01:23.299Z,15.70
2023-02-09T00:02:23.279Z,15.20
2023-02-09T00:03:23.306Z,15.60
2023-02-09T00:04:23.219Z,14.70
2023-02-09T00:05:23.206Z,16.20
2023-02-09T00:06:23.214Z,16.80
2023-02-09T00:07:23.200Z,16.00
2023-02-09T00:08:23.165Z,15.50
2023-02-09T00:09:23.160Z,15.00
2023-02-09T00:10:23.147Z,15.80
2023-02-09T00:11:23.237Z,15.60
2023-02-09T00:12:23.147Z,15.80
2023-02-09T00:13:23.127Z,14.90
2023-02-09T00:14:23.098Z,15.10
2023-02-09T00:15:23.121Z,15.40
2023-02-09T00:16:23.133Z,14.90
2023-02-09T00:17:23.083Z,16.10
2023-02-09T00:18:23.072Z,14.50
2023-02-09T00:19:23.066Z,15.70
2023-02-09T00:20:23.038Z,15.20
2023-02-09T00:21:23.032Z,14.50
2023-02-09T00:22:23.076Z,16.20
2023-02-09T00:23:23.026Z,15.80
2023-02-09T00:24:23.033Z,15.60
2023-02-09T00:25:22.981Z,15.80
2023-02-09T00:26:22.996Z,15.00
2023-02-09T00:27:22.990Z,15.30
2023-02-09T00:28:23.039Z,14.70
2023-02-09T00:29:22.967Z,15.80
2023-02-09T00:30:22.943Z,15.40
2023-02-09T00:31:23.075Z,14.60
2023-02-09T00:32:22.938Z,15.50
2023-02-09T00:33:22.916Z,15.30
2023-02-09T00:34:22.879Z,15.20
2023-02-09T00:35:22.895Z,14.50
2023-02-09T00:36:22.872Z,14.90
2023-02-09T00:37:22.884Z,15.20
2023-02-09T00:38:22.888Z,15.10
2023-02-09T00:39:22.825Z,15.10
2023-02-09T00:40:22.816Z,14.40
2023-02-09T00:41:22.811Z,15.60
2023-02-09T00:42:22.817Z,14.80
2023-02-09T00:43:22.797Z,15.60
2023-02-09T00:44:22.825Z,14.50
2023-02-09T00:45:22.764Z,13.00
2023-02-09T00:46:22.748Z,13.70
2023-02-09T00:47:22.772Z,14.00
2023-02-09T00:48:22.731Z,13.90
2023-02-09T00:49:22.791Z,14.10
2023-02-09T00:50:22.767Z,14.50
2023-02-09T00:51:22.748Z,14.60
2023-02-09T00:52:22.694Z,13.70
2023-02-09T00:53:22.685Z,14.50
2023-02-09T00:54:22.685Z,13.70
2023-02-09T00:55:22.702Z,14.20
2023-02-09T00:56:22.664Z,14.00
2023-02-09T00:57:22.655Z,13.50
2023-02-09T00:58:22.630Z,13.40
2023-02-09T00:59:22.684Z,13.50
2023-02-09T01:00:22.657Z,13.30
2023-02-09T01:01:22.644Z,13.90
2023-02-09T01:02:22.593Z,13.10
2023-02-09T01:03:22.564Z,13.20
2023-02-09T01:04:22.667Z,13.80
2023-02-09T01:05:22.586Z,12.70
2023-02-09T01:06:22.561Z,12.70
2023-02-09T01:07:22.531Z,12.90
2023-02-09T01:08:22.511Z,13.20
2023-02-09T01:09:22.556Z,12.50
2023-02-09T01:10:22.500Z,13.10
2023-02-09T01:11:22.477Z,13.30
2023-02-09T01:12:22.488Z,13.00
2023-02-09T01:13:22.450Z,12.90
2023-02-09T01:14:22.443Z,12.90
2023-02-09T01:15:22.463Z,12.80
2023-02-09T01:16:22.505Z,12.50
2023-02-09T01:17:22.411Z,12.90
2023-02-09T01:18:22.416Z,12.40
2023-02-09T01:19:22.398Z,13.20
2023-02-09T01:20:22.429Z,13.40
2023-02-09T01:21:22.385Z,13.10
2023-02-09T01:22:22.374Z,13.00
2023-02-09T01:23:22.363Z,12.10
2023-02-09T01:24:22.372Z,13.10
2023-02-09T01:25:22.425Z,12.60
2023-02-09T01:26:22.318Z,13.20
2023-02-09T01:27:22.301Z,12.90
2023-02-09T01:28:22.340Z,12.90
2023-02-09T01:29:22.301Z,13.50
2023-02-09T01:30:22.418Z,13.50
2023-02-09T01:31:22.410Z,12.20
2023-02-09T01:32:22.463Z,13.40
2023-02-09T01:33:22.249Z,13.00
2023-02-09T01:34:22.232Z,12.60
2023-02-09T01:35:22.239Z,12.90
2023-02-09T01:36:22.230Z,13.10
2023-02-09T01:37:22.190Z,13.00
2023-02-09T01:38:22.181Z,13.30
2023-02-09T01:39:22.218Z,12.30
2023-02-09T01:40:22.197Z,12.80
2023-02-09T01:41:22.174Z,13.40
2023-02-09T01:42:22.186Z,12.40
2023-02-09T01:43:22.182Z,12.80
2023-02-09T01:44:22.127Z,12.50
2023-02-09T01:45:22.194Z,11.80
2023-02-09T01:46:22.254Z,13.40
2023-02-09T01:47:22.109Z,12.50
2023-02-09T01:48:22.108Z,12.40
2023-02-09T01:49:22.078Z,13.20
2023-02-09T01:50:22.065Z,12.40
2023-02-09T01:51:22.075Z,12.60
2023-02-09T01:52:22.094Z,12.80
2023-02-09T01:53:22.040Z,13.30
2023-02-09T01:54:22.029Z,12.40
2023-02-09T01:55:22.023Z,13.10
2023-02-09T01:56:21.999Z,13.30
2023-02-09T01:57:21.979Z,13.20
2023-02-09T01:58:21.973Z,14.00
2023-02-09T01:59:21.965Z,12.90
2023-02-09T02:00:22.011Z,13.30
2023-02-09T02:01:21.968Z,12.90
2023-02-09T02:02:22.001Z,12.20
2023-02-09T02:03:21.959Z,12.90
2023-02-09T02:04:21.924Z,12.30
2023-02-09T02:05:21.891Z,12.50
2023-02-09T02:06:21.929Z,11.70
2023-02-09T02:07:21.883Z,12.20
2023-02-09T02:08:21.867Z,12.40
2023-02-09T02:09:21.874Z,11.60
2023-02-09T02:10:21.849Z,12.00
2023-02-09T02:11:21.852Z,12.20
2023-02-09T02:12:21.822Z,12.40
2023-02-09T02:13:21.856Z,12.80
2023-02-09T02:14:21.813Z,12.50
2023-02-09T02:15:21.792Z,12.10
2023-02-09T02:16:21.824Z,12.30
2023-02-09T02:17:21.755Z,12.00
2023-02-09T02:18:21.771Z,12.60
2023-02-09T02:19:21.741Z,12.20
2023-02-09T02:20:21.758Z,12.90
2023-02-09T02:21:21.712Z,12.30
2023-02-09T02:22:21.712Z,12.00
2023-02-09T02:23:21.714Z,12.00
2023-02-09T02:24:21.678Z,12.30
2023-02-09T02:25:21.670Z,12.50
2023-02-09T02:26:21.684Z,12.50
2023-02-09T02:27:21.648Z,12.50
2023-02-09T02:28:21.722Z,11.70
2023-02-09T02:29:21.664Z,12.50
2023-02-09T02:30:21.631Z,12.20
2023-02-09T02:31:21.722Z,11.60
2023-02-09T02:32:21.595Z,12.50
2023-02-09T02:33:21.593Z,12.20
2023-02-09T02:34:21.598Z,12.40
2023-02-09T02:35:21.559Z,11.50
2023-02-09T02:36:21.574Z,11.80
2023-02-09T02:37:21.545Z,11.60
2023-02-09T02:38:21.525Z,11.50
2023-02-09T02:39:21.560Z,11.90
2023-02-09T02:40:21.511Z,12.00
2023-02-09T02:41:21.499Z,12.20
2023-02-09T02:42:21.521Z,12.00
2023-02-09T02:43:21.486Z,12.80
2023-02-09T02:44:21.508Z,12.70
2023-02-09T02:45:21.465Z,12.20
2023-02-09T02:46:21.566Z,11.80
2023-02-09T02:47:21.453Z,11.70
2023-02-09T02:48:21.422Z,11.70
2023-02-09T02:49:21.439Z,13.20
2023-02-09T02:50:21.463Z,12.00
2023-02-09T02:51:21.415Z,11.70
2023-02-09T02:52:21.403Z,11.50
2023-02-09T02:53:21.378Z,12.80
2023-02-09T02:54:21.402Z,11.90
2023-02-09T02:55:21.360Z,12.50
2023-02-09T02:56:21.345Z,12.50
2023-02-09T02:57:21.346Z,12.30
2023-02-09T02:58:21.381Z,12.60
2023-02-09T02:59:21.341Z,12.10
2023-02-09T03:00:21.313Z,12.30
2023-02-09T03:01:21.364Z,12.10
2023-02-09T03:02:21.273Z,12.40
2023-02-09T03:03:21.281Z,11.40
2023-02-09T03:04:21.281Z,11.60
2023-02-09T03:05:21.365Z,12.80
2023-02-09T03:06:21.249Z,12.10
2023-02-09T03:07:21.227Z,12.20
2023-02-09T03:08:21.274Z,12.60
2023-02-09T03:09:21.208Z,12.30
2023-02-09T03:10:21.239Z,11.70
2023-02-09T03:11:21.209Z,11.70
2023-02-09T03:12:21.174Z,11.90
2023-02-09T03:13:21.159Z,12.00
2023-02-09T03:14:21.172Z,11.30
2023-02-09T03:15:21.180Z,12.10
2023-02-09T03:16:21.236Z,12.20
2023-02-09T03:17:21.122Z,11.50
2023-02-09T03:18:21.112Z,11.80
2023-02-09T03:19:21.142Z,12.20
2023-02-09T03:20:21.092Z,11.90
2023-02-09T03:21:21.081Z,11.70
2023-02-09T03:22:21.065Z,11.90
2023-02-09T03:23:21.065Z,12.20
2023-02-09T03:24:21.099Z,11.60
2023-02-09T03:25:21.039Z,12.20
2023-02-09T03:26:21.015Z,11.90
2023-02-09T03:27:21.053Z,11.80
2023-02-09T03:28:21.115Z,12.00
2023-02-09T03:29:21.021Z,12.90
2023-02-09T03:30:21.067Z,11.90
2023-02-09T03:31:21.181Z,12.00
2023-02-09T03:32:20.981Z,12.40
2023-02-09T03:33:21.008Z,11.60
2023-02-09T03:34:20.934Z,11.90
2023-02-09T03:35:20.936Z,11.80
2023-02-09T03:36:20.919Z,12.00
2023-02-09T03:37:20.921Z,12.30
2023-02-09T03:38:20.906Z,11.70
2023-02-09T03:39:20.885Z,11.90
2023-02-09T03:40:21.452Z,12.00
2023-02-09T03:41:20.900Z,11.30
2023-02-09T03:42:20.905Z,11.70
2023-02-09T03:43:20.847Z,12.30
2023-02-09T03:44:20.853Z,11.10
2023-02-09T03:45:20.821Z,11.70
2023-02-09T03:46:20.821Z,11.60
2023-02-09T03:47:20.795Z,12.50
2023-02-09T03:48:20.826Z,11.80
2023-02-09T03:49:20.782Z,11.80
2023-02-09T03:50:20.792Z,11.90
2023-02-09T03:51:20.786Z,12.40
2023-02-09T03:52:20.763Z,11.70
2023-02-09T03:53:20.780Z,11.90
2023-02-09T03:54:20.722Z,14.00
2023-02-09T03:55:20.713Z,12.30
2023-02-09T03:56:20.716Z,12.30
2023-02-09T03:57:20.734Z,12.70
2023-02-09T03:58:20.751Z,12.10
2023-02-09T03:59:20.664Z,12.20
2023-02-09T04:00:20.655Z,12.20
2023-02-09T04:01:20.714Z,12.60
2023-02-09T04:02:20.680Z,11.70
2023-02-09T04:03:20.642Z,11.90
2023-02-09T04:04:20.672Z,13.40
2023-02-09T04:05:20.607Z,12.60
2023-02-09T04:06:20.767Z,11.90
2023-02-09T04:07:20.602Z,12.20
2023-02-09T04:08:20.620Z,11.80
2023-02-09T04:09:20.571Z,11.90
2023-02-09T04:10:20.598Z,12.20
2023-02-09T04:11:22.158Z,12.30
2023-02-09T04:12:20.549Z,11.20
2023-02-09T04:13:20.539Z,11.80
2023-02-09T04:14:20.536Z,12.00
2023-02-09T04:15:20.501Z,11.70
2023-02-09T04:16:20.595Z,12.40
2023-02-09T04:17:20.478Z,12.30
2023-02-09T04:18:20.500Z,12.40
2023-02-09T04:19:20.451Z,12.50
2023-02-09T04:20:20.490Z,12.90
2023-02-09T04:21:20.440Z,12.90
2023-02-09T04:22:20.411Z,12.00
2023-02-09T04:23:21.201Z,12.70
2023-02-09T04:24:20.418Z,11.80
2023-02-09T04:25:20.393Z,12.10
2023-02-09T04:26:20.376Z,12.90
2023-02-09T04:27:20.412Z,12.70
2023-02-09T04:28:20.457Z,13.20
2023-02-09T04:29:20.379Z,11.60
2023-02-09T04:30:20.351Z,12.80
2023-02-09T04:31:20.505Z,12.10
2023-02-09T04:32:20.310Z,12.20
2023-02-09T04:33:20.309Z,12.10
2023-02-09T04:34:20.306Z,12.00
2023-02-09T04:35:20.299Z,12.40
2023-02-09T04:36:20.315Z,11.60
2023-02-09T04:37:20.347Z,12.50
2023-02-09T04:38:20.250Z,12.20
2023-02-09T04:39:20.269Z,12.00
2023-02-09T04:40:20.241Z,12.40
2023-02-09T04:41:20.222Z,12.20
2023-02-09T04:42:20.224Z,12.00
2023-02-09T04:43:20.228Z,11.60
2023-02-09T04:44:20.203Z,12.20
2023-02-09T04:45:20.197Z,12.00
2023-02-09T04:46:20.178Z,12.20
2023-02-09T04:47:20.165Z,12.00
2023-02-09T04:48:20.145Z,12.50
2023-02-09T04:49:20.176Z,12.00
2023-02-09T04:50:20.174Z,11.80
2023-02-09T04:51:20.112Z,11.80
2023-02-09T04:52:20.107Z,12.40
2023-02-09T04:53:20.111Z,12.10
2023-02-09T04:54:20.129Z,12.10
2023-02-09T04:55:20.123Z,12.50
2023-02-09T04:56:20.062Z,12.40
2023-02-09T04:57:20.053Z,12.20
2023-02-09T04:58:20.049Z,12.60
2023-02-09T04:59:20.058Z,12.20
2023-02-09T05:00:20.063Z,12.00
2023-02-09T05:01:20.153Z,11.70
2023-02-09T05:02:20.022Z,12.10
2023-02-09T05:03:20.039Z,11.70
2023-02-09T05:04:20.005Z,11.90
2023-02-09T05:05:19.986Z,12.50
2023-02-09T05:06:19.960Z,12.10
2023-02-09T05:07:19.964Z,12.30
2023-02-09T05:08:19.954Z,12.30
2023-02-09T05:09:19.964Z,12.10
2023-02-09T05:10:19.930Z,11.70
2023-02-09T05:11:19.897Z,12.20
2023-02-09T05:12:19.881Z,11.80
2023-02-09T05:13:19.889Z,11.70
2023-02-09T05:14:19.902Z,12.00
2023-02-09T05:15:19.859Z,11.70
2023-02-09T05:16:19.931Z,11.50
2023-02-09T05:17:19.830Z,11.00
2023-02-09T05:18:19.818Z,11.50
2023-02-09T05:19:19.812Z,11.80
2023-02-09T05:20:19.810Z,11.40
2023-02-09T05:21:19.822Z,11.00
2023-02-09T05:22:19.779Z,11.70
2023-02-09T05:23:19.770Z,11.70
2023-02-09T05:24:19.760Z,10.80
2023-02-09T05:25:19.757Z,12.10
2023-02-09T05:26:19.766Z,12.10
2023-02-09T05:27:19.726Z,11.50
2023-02-09T05:28:19.806Z,11.70
2023-02-09T05:29:21.999Z,11.50
2023-02-09T05:30:19.697Z,12.10
2023-02-09T05:31:19.902Z,11.40
2023-02-09T05:32:19.777Z,11.00
2023-02-09T05:33:19.671Z,10.90
2023-02-09T05:34:19.676Z,11.80
2023-02-09T05:35:19.642Z,11.30
2023-02-09T05:36:19.644Z,10.90
2023-02-09T05:37:19.620Z,11.70
2023-02-09T05:38:19.629Z,11.40
2023-02-09T05:39:19.639Z,11.00
2023-02-09T05:40:19.597Z,10.90
2023-02-09T05:41:19.575Z,11.80
2023-02-09T05:42:19.602Z,11.70
2023-02-09T05:43:19.562Z,11.20
2023-02-09T05:44:19.552Z,11.80
2023-02-09T05:45:19.542Z,12.40
2023-02-09T05:46:19.593Z,11.60
2023-02-09T05:47:19.576Z,10.80
2023-02-09T05:48:19.565Z,11.50
2023-02-09T05:49:19.528Z,11.60
2023-02-09T05:50:19.491Z,11.80
2023-02-09T05:51:19.477Z,11.90
2023-02-09T05:52:19.473Z,12.30
2023-02-09T05:53:19.482Z,11.90
2023-02-09T05:54:19.468Z,11.70
2023-02-09T05:55:19.423Z,12.20
2023-02-09T05:56:19.418Z,11.70
2023-02-09T05:57:19.405Z,11.60
2023-02-09T05:58:19.409Z,11.60
2023-02-09T05:59:19.396Z,11.40
2023-02-09T06:00:19.374Z,11.60
2023-02-09T06:01:19.368Z,11.60
2023-02-09T06:02:19.398Z,11.40
2023-02-09T06:03:19.377Z,11.40
2023-02-09T06:04:19.363Z,11.30
2023-02-09T06:05:19.309Z,11.10
2023-02-09T06:06:19.301Z,11.10
2023-02-09T06:07:19.323Z,12.10
2023-02-09T06:08:19.308Z,12.00
2023-02-09T06:09:19.281Z,11.60
2023-02-09T06:10:19.259Z,12.00
2023-02-09T06:11:19.253Z,12.30
2023-02-09T06:12:19.253Z,12.10
2023-02-09T06:13:19.283Z,12.60
2023-02-09T06:14:19.228Z,12.30
2023-02-09T06:15:19.203Z,12.50
2023-02-09T06:16:19.191Z,12.80
2023-02-09T06:17:19.206Z,11.50
2023-02-09T06:18:19.191Z,13.10
2023-02-09T06:19:19.184Z,13.10
2023-02-09T06:20:19.175Z,13.10
2023-02-09T06:21:19.177Z,12.80
2023-02-09T06:22:19.164Z,13.30
2023-02-09T06:23:19.132Z,12.80
2023-02-09T06:24:19.120Z,12.90
2023-02-09T06:25:19.162Z,13.20
2023-02-09T06:26:19.110Z,13.70
2023-02-09T06:27:19.110Z,13.20
2023-02-09T06:28:19.106Z,13.20
2023-02-09T06:29:19.065Z,14.20
2023-02-09T06:30:19.053Z,14.50
2023-02-09T06:31:19.167Z,14.00
2023-02-09T06:32:19.068Z,14.20
2023-02-09T06:33:19.045Z,15.20
2023-02-09T06:34:19.008Z,14.40
2023-02-09T06:35:19.076Z,15.20
2023-02-09T06:36:19.027Z,16.10
2023-02-09T06:37:18.970Z,14.80
2023-02-09T06:38:18.976Z,15.70
2023-02-09T06:39:18.954Z,15.70
2023-02-09T06:40:19.024Z,15.70
2023-02-09T06:41:19.123Z,15.50
2023-02-09T06:42:18.938Z,15.90
2023-02-09T06:43:18.953Z,15.30
2023-02-09T06:44:18.903Z,16.00
2023-02-09T06:45:18.908Z,14.90
2023-02-09T06:46:18.982Z,15.10
2023-02-09T06:47:18.890Z,15.50
2023-02-09T06:48:18.894Z,15.00
2023-02-09T06:49:18.861Z,14.70
2023-02-09T06:50:18.852Z,14.90
2023-02-09T06:51:18.833Z,15.50
2023-02-09T06:52:18.839Z,16.50
2023-02-09T06:53:18.869Z,15.70
2023-02-09T06:54:18.822Z,15.60
2023-02-09T06:55:18.805Z,16.00
2023-02-09T06:56:18.782Z,15.60
2023-02-09T06:57:18.790Z,15.80
2023-02-09T06:58:18.801Z,15.50
2023-02-09T06:59:18.785Z,15.50
2023-02-09T07:00:18.739Z,14.70
2023-02-09T07:01:18.762Z,16.00
2023-02-09T07:02:18.743Z,14.80
2023-02-09T07:03:18.701Z,14.70
2023-02-09T07:04:18.754Z,15.60
2023-02-09T07:05:18.693Z,16.40
2023-02-09T07:06:18.665Z,15.80
2023-02-09T07:07:18.661Z,15.90
2023-02-09T07:08:18.665Z,14.90
2023-02-09T07:09:18.678Z,14.90
2023-02-09T07:10:18.790Z,14.50
2023-02-09T07:11:18.637Z,13.80
2023-02-09T07:12:18.610Z,14.60
2023-02-09T07:13:18.612Z,14.00
2023-02-09T07:14:18.582Z,13.90
2023-02-09T07:15:18.591Z,13.70
2023-02-09T07:16:18.658Z,12.30
2023-02-09T07:17:18.603Z,12.60
2023-02-09T07:18:18.551Z,11.50
2023-02-09T07:19:18.529Z,11.00
2023-02-09T07:20:18.591Z,12.00
2023-02-09T07:21:18.571Z,12.40
2023-02-09T07:22:18.508Z,11.40
2023-02-09T07:23:18.484Z,11.80
2023-02-09T07:24:18.532Z,12.20
2023-02-09T07:25:18.492Z,11.90
2023-02-09T07:26:18.459Z,11.10
2023-02-09T07:27:18.442Z,11.80
2023-02-09T07:28:18.447Z,11.00
2023-02-09T07:29:18.437Z,11.40
2023-02-09T07:30:18.449Z,12.30
2023-02-09T07:31:18.546Z,11.00
2023-02-09T07:32:18.387Z,11.90
2023-02-09T07:33:18.374Z,11.80
2023-02-09T07:34:18.423Z,11.30
2023-02-09T07:35:18.558Z,11.60
2023-02-09T07:36:18.346Z,11.40
2023-02-09T07:37:18.348Z,11.50
2023-02-09T07:38:18.318Z,11.80
2023-02-09T07:39:18.342Z,11.90
2023-02-09T07:40:18.362Z,12.80
2023-02-09T07:41:18.297Z,12.90
2023-02-09T07:42:18.290Z,12.40
2023-02-09T07:43:18.269Z,12.60
2023-02-09T07:44:18.254Z,11.50
2023-02-09T07:45:18.279Z,11.30
2023-02-09T07:46:18.315Z,12.30
2023-02-09T07:47:18.234Z,11.40
2023-02-09T07:48:18.218Z,11.40
2023-02-09T07:49:18.216Z,10.90
2023-02-09T07:50:20.083Z,11.40
2023-02-09T07:51:18.241Z,11.50
2023-02-09T07:52:18.194Z,11.90
2023-02-09T07:53:18.161Z,12.10
2023-02-09T07:54:18.173Z,12.30
2023-02-09T07:55:18.162Z,11.50
2023-02-09T07:56:18.184Z,11.20
2023-02-09T07:57:18.118Z,11.20
2023-02-09T07:58:18.116Z,11.80
2023-02-09T07:59:18.096Z,11.40
2023-02-09T08:00:18.108Z,11.60
2023-02-09T08:01:18.263Z,11.80
2023-02-09T08:02:18.066Z,11.60
2023-02-09T08:03:18.057Z,11.70
2023-02-09T08:04:18.048Z,11.50
2023-02-09T08:05:18.125Z,11.10
2023-02-09T08:06:19.450Z,11.90
2023-02-09T08:07:18.008Z,12.20
2023-02-09T08:08:18.001Z,12.60
2023-02-09T08:09:18.018Z,11.80
2023-02-09T08:10:18.004Z,11.00
2023-02-09T08:11:17.988Z,12.10
2023-02-09T08:12:18.051Z,11.50
2023-02-09T08:13:17.946Z,11.60
2023-02-09T08:14:17.981Z,11.60
2023-02-09T08:15:17.921Z,11.20
2023-02-09T08:16:17.994Z,11.90
2023-02-09T08:17:17.943Z,12.10
2023-02-09T08:18:17.932Z,11.70
2023-02-09T08:19:17.881Z,11.10
2023-02-09T08:20:17.907Z,11.50
2023-02-09T08:21:17.870Z,10.50
2023-02-09T08:22:17.849Z,11.50
2023-02-09T08:23:17.859Z,11.10
2023-02-09T08:24:17.850Z,10.90
2023-02-09T08:25:17.837Z,10.20
2023-02-09T08:26:17.846Z,10.70
2023-02-09T08:27:17.813Z,10.70
2023-02-09T08:28:17.850Z,10.60
2023-02-09T08:29:17.809Z,10.50
2023-02-09T08:30:17.767Z,11.40
2023-02-09T08:31:17.928Z,10.30
2023-02-09T08:32:17.841Z,10.20
2023-02-09T08:33:17.734Z,10.50
2023-02-09T08:34:17.739Z,10.70
2023-02-09T08:35:17.732Z,9.90
2023-02-09T08:36:17.747Z,10.60
2023-02-09T08:37:17.688Z,10.30
2023-02-09T08:38:17.685Z,10.30
2023-02-09T08:39:17.673Z,10.60
2023-02-09T08:40:17.667Z,10.80
2023-02-09T08:41:17.671Z,9.70
2023-02-09T08:42:17.671Z,10.20
2023-02-09T08:43:17.618Z,10.20
2023-02-09T08:44:17.740Z,10.00
2023-02-09T08:45:17.597Z,10.20
2023-02-09T08:46:17.791Z,9.60
2023-02-09T08:47:17.577Z,9.90
2023-02-09T08:48:17.589Z,11.00
2023-02-09T08:49:17.569Z,10.50
2023-02-09T08:50:17.548Z,10.70
2023-02-09T08:51:17.547Z,10.70
2023-02-09T08:52:17.545Z,10.40
2023-02-09T08:53:17.519Z,10.50
2023-02-09T08:54:17.501Z,9.90
2023-02-09T08:55:17.515Z,10.20
2023-02-09T08:56:17.528Z,10.20
2023-02-09T08:57:17.483Z,10.20
2023-02-09T08:58:17.470Z,10.80
2023-02-09T08:59:20.004Z,11.00
2023-02-09T09:00:17.453Z,10.30
2023-02-09T09:01:18.682Z,9.70
2023-02-09T09:02:17.424Z,9.80
2023-02-09T09:03:17.461Z,9.90
2023-02-09T09:04:17.428Z,9.80
2023-02-09T09:05:17.396Z,10.00
2023-02-09T09:06:17.382Z,9.70
2023-02-09T09:07:17.373Z,10.00
2023-02-09T09:08:17.400Z,9.80
2023-02-09T09:09:17.363Z,9.60
2023-02-09T09:10:17.328Z,9.70
2023-02-09T09:11:17.319Z,10.10
2023-02-09T09:12:17.315Z,9.70
2023-02-09T09:13:17.319Z,9.20
2023-02-09T09:14:17.316Z,9.70
2023-02-09T09:15:17.283Z,9.80
2023-02-09T09:16:17.319Z,9.60
2023-02-09T09:17:17.289Z,10.00
2023-02-09T09:18:17.263Z,9.90
2023-02-09T09:19:17.265Z,9.70
2023-02-09T09:20:17.235Z,9.60
2023-02-09T09:21:17.272Z,10.60
2023-02-09T09:22:17.209Z,9.60
2023-02-09T09:23:17.186Z,9.80
2023-02-09T09:24:17.251Z,9.90
2023-02-09T09:25:17.188Z,9.90
2023-02-09T09:26:17.152Z,9.90
2023-02-09T09:27:17.148Z,9.40
2023-02-09T09:28:17.250Z,9.90
2023-02-09T09:29:17.154Z,9.70
2023-02-09T09:30:17.131Z,9.00
2023-02-09T09:31:17.192Z,9.90
2023-02-09T09:32:17.184Z,10.00
2023-02-09T09:33:17.108Z,10.20
2023-02-09T09:34:17.087Z,9.40
2023-02-09T09:35:17.058Z,10.00
2023-02-09T09:36:17.071Z,9.50
2023-02-09T09:37:17.035Z,9.90
2023-02-09T09:38:17.050Z,9.50
2023-02-09T09:39:17.048Z,9.50
2023-02-09T09:40:17.015Z,9.90
2023-02-09T09:41:17.002Z,10.00
2023-02-09T09:42:16.991Z,10.00
2023-02-09T09:43:16.983Z,10.40
2023-02-09T09:44:16.986Z,10.10
2023-02-09T09:45:16.953Z,10.60
2023-02-09T09:46:16.952Z,10.30
2023-02-09T09:47:16.944Z,9.70
2023-02-09T09:48:16.939Z,10.10
2023-02-09T09:49:16.922Z,9.90
2023-02-09T09:50:16.891Z,10.30
2023-02-09T09:51:16.877Z,9.20
2023-02-09T09:52:16.870Z,10.60
2023-02-09T09:53:16.878Z,10.10
2023-02-09T09:54:16.854Z,10.00
2023-02-09T09:55:16.839Z,10.30
2023-02-09T09:56:16.855Z,10.20
2023-02-09T09:57:16.814Z,10.00
2023-02-09T09:58:16.804Z,11.50
2023-02-09T09:59:16.813Z,9.70
2023-02-09T10:00:16.787Z,10.20
2023-02-09T10:01:16.851Z,10.20
2023-02-09T10:02:16.758Z,10.50
2023-02-09T10:03:16.778Z,10.30
2023-02-09T10:04:16.805Z,11.30
2023-02-09T10:05:16.732Z,10.00
2023-02-09T10:06:16.739Z,10.40
2023-02-09T10:07:19.105Z,9.70
2023-02-09T10:08:16.692Z,10.30
2023-02-09T10:09:16.683Z,10.80
2023-02-09T10:10:16.678Z,10.30
2023-02-09T10:11:16.681Z,10.40
2023-02-09T10:12:16.652Z,10.10
2023-02-09T10:13:16.635Z,10.30
2023-02-09T10:14:16.627Z,10.00
2023-02-09T10:15:16.647Z,10.40
2023-02-09T10:16:16.676Z,10.70
2023-02-09T10:17:16.618Z,10.60
2023-02-09T10:18:16.588Z,10.50
2023-02-09T10:19:16.575Z,10.40
2023-02-09T10:20:16.576Z,10.80
2023-02-09T10:21:16.602Z,10.20
2023-02-09T10:22:16.558Z,10.80
2023-02-09T10:23:16.541Z,11.60
2023-02-09T10:24:16.522Z,10.50
2023-02-09T10:25:16.529Z,10.70
2023-02-09T10:26:16.500Z,10.20
2023-02-09T10:27:16.500Z,9.90
2023-02-09T10:28:16.536Z,10.00
2023-02-09T10:29:16.477Z,10.50
2023-02-09T10:30:16.446Z,10.30
2023-02-09T10:31:16.534Z,10.90
2023-02-09T10:32:16.477Z,10.30
2023-02-09T10:33:16.437Z,9.80
2023-02-09T10:34:16.411Z,10.50
2023-02-09T10:35:16.394Z,10.00
2023-02-09T10:36:16.401Z,9.90
2023-02-09T10:37:16.376Z,10.10
2023-02-09T10:38:16.361Z,10.50
2023-02-09T10:39:16.370Z,9.90
2023-02-09T10:40:16.336Z,10.20
2023-02-09T10:41:16.344Z,10.30
2023-02-09T10:42:16.324Z,9.50
2023-02-09T10:43:16.311Z,9.60
2023-02-09T10:44:16.323Z,10.00
2023-02-09T10:45:16.278Z,10.70
2023-02-09T10:46:16.315Z,9.80
2023-02-09T10:47:16.253Z,10.20
2023-02-09T10:48:16.251Z,10.30
2023-02-09T10:49:16.266Z,10.10
2023-02-09T10:50:16.242Z,10.30
2023-02-09T10:51:16.225Z,10.50
2023-02-09T10:52:16.228Z,10.20
2023-02-09T10:53:16.230Z,10.00
2023-02-09T10:54:16.233Z,11.10
2023-02-09T10:55:16.165Z,10.00
2023-02-09T10:56:16.178Z,9.80
2023-02-09T10:57:16.146Z,10.60
2023-02-09T10:58:16.136Z,10.20
2023-02-09T10:59:16.121Z,9.90
2023-02-09T11:00:16.134Z,9.80
2023-02-09T11:01:16.147Z,9.40
2023-02-09T11:02:16.098Z,9.50
2023-02-09T11:03:16.096Z,9.30
2023-02-09T11:04:16.140Z,9.40
2023-02-09T11:05:16.056Z,9.30
2023-02-09T11:06:16.082Z,9.40
2023-02-09T11:07:16.051Z,9.20
2023-02-09T11:08:16.073Z,9.70
2023-02-09T11:09:16.015Z,9.10
2023-02-09T11:10:16.017Z,9.20
2023-02-09T11:11:15.997Z,9.90
2023-02-09T11:12:15.982Z,9.00
2023-02-09T11:13:15.991Z,9.60
2023-02-09T11:14:15.960Z,9.30
2023-02-09T11:15:15.961Z,9.30
2023-02-09T11:16:16.001Z,9.30
2023-02-09T11:17:15.989Z,9.20
2023-02-09T11:18:15.936Z,9.20
2023-02-09T11:19:16.738Z,8.90
2023-02-09T11:20:15.921Z,9.30
2023-02-09T11:21:15.916Z,8.70
2023-02-09T11:22:15.878Z,9.50
2023-02-09T11:23:15.877Z,9.30
2023-02-09T11:24:15.878Z,9.50
2023-02-09T11:25:15.840Z,8.90
2023-02-09T11:26:15.853Z,9.60
2023-02-09T11:27:15.858Z,9.70
2023-02-09T11:28:15.886Z,9.60
2023-02-09T11:29:15.795Z,9.40
2023-02-09T11:30:15.785Z,9.30
2023-02-09T11:31:15.821Z,9.10
2023-02-09T11:32:15.786Z,9.50
2023-02-09T11:33:15.772Z,9.70
2023-02-09T11:34:15.765Z,9.10
2023-02-09T11:35:15.728Z,9.40
2023-02-09T11:36:15.757Z,9.70
2023-02-09T11:37:15.724Z,10.00
2023-02-09T11:38:15.709Z,9.90
2023-02-09T11:39:15.687Z,9.50
2023-02-09T11:40:15.970Z,9.60
2023-02-09T11:41:15.719Z,9.80
2023-02-09T11:42:15.657Z,9.40
2023-02-09T11:43:16.238Z,9.80
2023-02-09T11:44:15.649Z,10.00
2023-02-09T11:45:15.661Z,10.00
2023-02-09T11:46:15.694Z,9.80
2023-02-09T11:47:15.608Z,9.10
2023-02-09T11:48:15.588Z,10.10
2023-02-09T11:49:15.599Z,10.20
2023-02-09T11:50:15.650Z,9.90
2023-02-09T11:51:15.574Z,10.20
2023-02-09T11:52:15.538Z,10.00
2023-02-09T11:53:15.550Z,10.30
2023-02-09T11:54:15.525Z,9.80
2023-02-09T11:55:15.527Z,9.80
2023-02-09T11:56:15.544Z,9.40
2023-02-09T11:57:15.485Z,10.00
2023-02-09T11:58:15.509Z,10.00
2023-02-09T11:59:15.469Z,10.40
2023-02-09T12:00:15.490Z,9.70
2023-02-09T12:01:16.676Z,10.30
2023-02-09T12:02:15.432Z,10.30
2023-02-09T12:03:15.527Z,10.10
2023-02-09T12:04:15.409Z,10.20
2023-02-09T12:05:15.688Z,10.20
2023-02-09T12:06:15.425Z,10.20
2023-02-09T12:07:15.374Z,10.00
2023-02-09T12:08:15.360Z,10.30
2023-02-09T12:09:15.352Z,9.50
2023-02-09T12:10:15.528Z,9.90
2023-02-09T12:11:15.338Z,9.70
2023-02-09T12:12:15.385Z,9.70
2023-02-09T12:13:15.302Z,9.80
2023-02-09T12:14:15.299Z,10.20
2023-02-09T12:15:18.438Z,10.40
2023-02-09T12:16:15.335Z,9.90
2023-02-09T12:17:16.119Z,10.30
2023-02-09T12:18:15.248Z,10.30
2023-02-09T12:19:15.238Z,9.60
2023-02-09T12:20:17.544Z,10.00
2023-02-09T12:21:15.227Z,9.60
2023-02-09T12:22:15.231Z,11.10
2023-02-09T12:23:15.198Z,9.40
2023-02-09T12:24:15.188Z,10.50
2023-02-09T12:25:15.198Z,10.10
2023-02-09T12:26:15.157Z,9.00
2023-02-09T12:27:15.773Z,9.50
2023-02-09T12:28:15.180Z,10.00
2023-02-09T12:29:15.132Z,9.30
2023-02-09T12:30:15.138Z,9.40
2023-02-09T12:31:15.237Z,10.10
2023-02-09T12:32:15.176Z,10.00
2023-02-09T12:33:15.082Z,9.90
2023-02-09T12:34:15.073Z,10.10
2023-02-09T12:35:15.085Z,10.70
2023-02-09T12:36:15.048Z,9.80
2023-02-09T12:37:15.064Z,10.30
2023-02-09T12:38:15.025Z,9.60
2023-02-09T12:39:15.016Z,10.00
2023-02-09T12:40:15.008Z,9.90
2023-02-09T12:41:15.015Z,8.90
2023-02-09T12:42:15.024Z,9.60
2023-02-09T12:43:14.967Z,10.30
2023-02-09T12:44:14.995Z,9.50
2023-02-09T12:45:14.978Z,10.00
2023-02-09T12:46:14.981Z,9.10
2023-02-09T12:47:14.924Z,9.80
2023-02-09T12:48:14.911Z,9.60
2023-02-09T12:49:14.901Z,9.60
2023-02-09T12:50:14.890Z,10.10
2023-02-09T12:51:14.910Z,9.70
2023-02-09T12:52:14.878Z,9.50
2023-02-09T12:53:14.878Z,9.00
2023-02-09T12:54:14.872Z,9.70
2023-02-09T12:55:14.867Z,9.70
2023-02-09T12:56:14.851Z,9.50